Time;durP1;ratioP1;P1;durP2;ratioP2;P2;SDS_P1;SDS_P2;PMS_P1;PMS_P2;Temp;Humidity;BMP_temperature;BMP_pressure;BME280_temperature;BME280_humidity;BME280_pressure;Samples;Min_cycle;Max_cycle;Signal;HPM_P1;HPM_P2
2021/05/07 00:01:59;;;;;;;0.77;0.43;;;;;;;12.98;100.00;97183.16;5027103;28;20854;-69
2021/05/07 00:04:26;;;;;;;0.30;0.30;;;;;;;13.35;100.00;97179.91;5025757;28;20199;-68
2021/05/07 00:06:54;;;;;;;0.40;0.40;;;;;;;13.61;100.00;97173.97;5029259;28;20254;-68
2021/05/07 00:09:20;;;;;;;0.40;0.40;;;;;;;13.52;100.00;97179.97;5026429;28;20264;-69
2021/05/07 00:11:48;;;;;;;0.30;0.30;;;;;;;13.49;100.00;97199.22;5027890;28;20211;-69
2021/05/07 00:14:15;;;;;;;0.40;0.40;;;;;;;13.55;100.00;97190.22;5029017;28;20207;-68
2021/05/07 00:16:42;;;;;;;0.40;0.40;;;;;;;13.47;100.00;97194.09;5024093;28;20650;-67
2021/05/07 00:19:09;;;;;;;0.43;0.40;;;;;;;13.23;100.00;97197.09;5027166;28;20237;-67
2021/05/07 00:21:37;;;;;;;1.20;0.47;;;;;;;13.52;100.00;97206.78;5029224;28;20198;-68
2021/05/07 00:24:05;;;;;;;0.40;0.40;;;;;;;13.38;100.00;97203.53;5028093;28;20301;-68
2021/05/07 00:26:32;;;;;;;0.30;0.30;;;;;;;13.24;100.00;97194.16;5032511;28;20206;-68
2021/05/07 00:28:59;;;;;;;0.70;0.30;;;;;;;13.41;100.00;97195.03;5026809;28;20227;-66
2021/05/07 00:31:26;;;;;;;0.37;0.37;;;;;;;13.38;100.00;97202.75;5019987;28;20279;-69
2021/05/07 00:33:53;;;;;;;0.57;0.57;;;;;;;13.54;100.00;97200.13;5023123;28;20276;-68
2021/05/07 00:36:20;;;;;;;0.30;0.30;;;;;;;13.44;100.00;97204.47;5030898;28;20202;-68
2021/05/07 00:38:47;;;;;;;0.30;0.30;;;;;;;13.51;100.00;97205.97;5030582;28;20234;-67
2021/05/07 00:41:14;;;;;;;0.40;0.40;;;;;;;13.60;100.00;97203.72;5034668;28;20203;-69
2021/05/07 00:43:40;;;;;;;1.17;0.50;;;;;;;13.40;100.00;97203.31;5032549;28;20215;-69
2021/05/07 00:46:08;;;;;;;0.67;0.50;;;;;;;13.26;100.00;97207.31;5032021;28;20199;-68
2021/05/07 00:48:37;;;;;;;0.47;0.47;;;;;;;13.26;100.00;97212.66;5023431;28;20226;-68
2021/05/07 00:51:04;;;;;;;0.50;0.47;;;;;;;12.25;100.00;97206.88;5030434;28;20667;-68
2021/05/07 00:53:31;;;;;;;0.50;0.50;;;;;;;12.82;100.00;97215.97;5030054;28;20207;-66
2021/05/07 00:55:57;;;;;;;1.00;0.53;;;;;;;12.97;100.00;97208.31;5026118;28;20627;-68
2021/05/07 00:58:25;;;;;;;0.80;0.50;;;;;;;12.97;100.00;97211.00;5026984;28;20225;-67
2021/05/07 01:00:53;;;;;;;0.40;0.40;;;;;;;13.11;100.00;97220.41;5026882;28;20239;-67
2021/05/07 01:03:20;;;;;;;0.50;0.50;;;;;;;12.93;100.00;97226.69;5016325;28;20253;-68
2021/05/07 01:05:47;;;;;;;0.30;0.30;;;;;;;12.79;100.00;97225.31;5021259;28;20226;-67
2021/05/07 01:08:15;;;;;;;0.67;0.67;;;;;;;12.78;100.00;97221.78;5030604;28;20234;-68
2021/05/07 01:10:42;;;;;;;0.30;0.30;;;;;;;13.09;100.00;97220.63;5032138;28;20218;-68
2021/05/07 01:13:09;;;;;;;0.20;0.20;;;;;;;13.10;100.00;97234.84;5027083;28;20321;-68
2021/05/07 01:15:35;;;;;;;0.40;0.40;;;;;;;13.16;100.00;97234.72;5023946;28;20207;-68
2021/05/07 01:18:02;;;;;;;0.40;0.40;;;;;;;12.64;100.00;97230.31;5047639;22;20227;-71
2021/05/07 01:20:32;;;;;;;0.50;0.50;;;;;;;12.40;100.00;97239.34;5034419;28;20233;-71
2021/05/07 01:23:00;;;;;;;0.40;0.40;;;;;;;12.28;100.00;97233.19;5034427;28;20299;-72
2021/05/07 01:25:28;;;;;;;0.30;0.30;;;;;;;12.03;100.00;97240.56;5032468;28;20268;-72
2021/05/07 01:27:56;;;;;;;0.50;0.43;;;;;;;12.56;100.00;97238.66;5025711;28;20269;-71
2021/05/07 01:30:25;;;;;;;0.60;0.50;;;;;;;11.95;100.00;97251.56;5012060;28;20207;-71
2021/05/07 01:32:52;;;;;;;0.63;0.40;;;;;;;11.92;100.00;97245.88;5012653;28;20903;-72
2021/05/07 01:35:20;;;;;;;0.63;0.50;;;;;;;12.48;100.00;97250.53;5011827;28;20237;-71
2021/05/07 01:37:49;;;;;;;0.93;0.50;;;;;;;12.18;100.00;97246.31;5014463;28;20717;-72
2021/05/07 01:40:19;;;;;;;0.50;0.50;;;;;;;11.77;100.00;97249.75;5012523;28;20207;-71
2021/05/07 01:42:47;;;;;;;0.43;0.43;;;;;;;11.91;100.00;97246.91;5012795;28;20199;-71
2021/05/07 01:45:15;;;;;;;1.40;0.63;;;;;;;11.82;100.00;97243.75;5016149;28;20202;-71
2021/05/07 01:47:42;;;;;;;0.40;0.40;;;;;;;12.18;100.00;97253.50;5013415;28;20277;-71
2021/05/07 01:50:10;;;;;;;0.40;0.40;;;;;;;12.16;100.00;97252.91;5012463;28;20208;-71
2021/05/07 01:52:37;;;;;;;0.53;0.40;;;;;;;11.81;100.00;97254.66;5010166;28;20215;-71
2021/05/07 01:55:06;;;;;;;0.60;0.53;;;;;;;11.71;100.00;97257.88;5013436;28;20238;-72
2021/05/07 01:57:34;;;;;;;0.77;0.60;;;;;;;12.07;100.00;97260.47;5011421;28;20259;-71
2021/05/07 02:00:01;;;;;;;1.93;0.67;;;;;;;12.00;100.00;97254.38;5014202;28;20203;-72
2021/05/07 02:02:29;;;;;;;2.43;0.70;;;;;;;12.04;100.00;97250.22;5015145;28;20218;-72
2021/05/07 02:04:56;;;;;;;0.63;0.60;;;;;;;11.81;100.00;97247.44;5014728;28;20213;-72
2021/05/07 02:07:24;;;;;;;1.50;0.53;;;;;;;11.91;100.00;97246.91;5011654;28;20227;-71
2021/05/07 02:09:51;;;;;;;0.90;0.63;;;;;;;11.97;100.00;97256.69;5012130;28;20208;-72
2021/05/07 02:12:19;;;;;;;0.67;0.57;;;;;;;12.07;100.00;97255.91;5011748;28;20326;-72
2021/05/07 02:14:45;;;;;;;0.57;0.57;;;;;;;12.10;100.00;97257.31;5011580;28;20209;-72
2021/05/07 02:17:12;;;;;;;0.60;0.50;;;;;;;11.95;100.00;97251.56;5011905;28;20233;-72
2021/05/07 02:19:39;;;;;;;1.60;0.73;;;;;;;11.94;100.00;97241.91;5011278;28;20276;-72
2021/05/07 02:22:06;;;;;;;2.37;0.70;;;;;;;11.61;100.00;97254.13;5012066;28;20203;-72
2021/05/07 02:24:32;;;;;;;0.67;0.50;;;;;;;11.80;100.00;97258.38;5011223;28;20205;-71
2021/05/07 02:26:59;;;;;;;1.07;0.70;;;;;;;11.70;100.00;97252.75;5011638;28;20221;-71
2021/05/07 02:29:27;;;;;;;1.10;0.77;;;;;;;11.59;100.00;97265.03;5011680;28;20227;-71
2021/05/07 02:31:54;;;;;;;0.47;0.47;;;;;;;11.88;100.00;97262.34;5013623;28;20238;-72
2021/05/07 02:34:20;;;;;;;2.30;0.67;;;;;;;11.82;100.00;97273.97;5010047;28;20300;-72
2021/05/07 02:36:47;;;;;;;0.80;0.77;;;;;;;12.04;100.00;97268.94;5013208;28;20207;-72
2021/05/07 02:39:15;;;;;;;1.33;0.80;;;;;;;11.87;100.00;97259.09;5011547;28;20276;-72
2021/05/07 02:41:43;;;;;;;0.83;0.53;;;;;;;11.87;100.00;97256.44;5015852;28;20213;-72
2021/05/07 02:44:10;;;;;;;0.77;0.60;;;;;;;11.63;100.00;97262.72;5011388;28;20217;-72
2021/05/07 02:46:38;;;;;;;1.03;0.73;;;;;;;11.58;100.00;97263.38;5015419;28;20209;-72
2021/05/07 02:49:06;;;;;;;0.83;0.70;;;;;;;11.77;100.00;97276.50;5011093;28;20715;-72
2021/05/07 02:51:33;;;;;;;1.00;0.80;;;;;;;11.71;100.00;97273.09;5015157;28;20661;-73
2021/05/07 02:54:00;;;;;;;0.83;0.80;;;;;;;11.45;100.00;97279.53;5015871;28;20228;-72
2021/05/07 02:56:27;;;;;;;1.00;0.67;;;;;;;11.96;100.00;97273.78;5012511;28;20207;-72
2021/05/07 02:58:54;;;;;;;0.70;0.70;;;;;;;12.06;100.00;97277.53;5012816;28;20233;-72
2021/05/07 03:01:22;;;;;;;0.80;0.70;;;;;;;11.82;100.00;97275.84;5011749;28;20214;-71
2021/05/07 03:03:50;;;;;;;0.70;0.70;;;;;;;12.07;100.00;97273.84;5019787;28;20211;-71
2021/05/07 03:06:16;;;;;;;1.40;0.90;;;;;;;12.06;100.00;97276.72;5012332;28;20207;-71
2021/05/07 03:08:43;;;;;;;1.70;0.80;;;;;;;11.71;100.00;97273.09;5016613;28;20243;-73
2021/05/07 03:11:11;;;;;;;1.13;0.80;;;;;;;11.98;100.00;97278.66;5010805;28;20207;-72
2021/05/07 03:13:37;;;;;;;0.70;0.70;;;;;;;12.07;100.00;97281.03;5017407;28;20217;-71
2021/05/07 03:16:05;;;;;;;1.30;0.80;;;;;;;11.97;100.00;97275.41;5011483;28;20305;-73
2021/05/07 03:18:31;;;;;;;1.00;0.87;;;;;;;11.97;100.00;97278.09;5012283;28;20237;-73
2021/05/07 03:20:59;;;;;;;1.27;0.80;;;;;;;11.98;100.00;97279.72;5014641;28;20207;-72
2021/05/07 03:23:26;;;;;;;2.60;0.70;;;;;;;12.14;100.00;97285.25;5012187;28;20205;-72
2021/05/07 03:25:53;;;;;;;1.93;1.00;;;;;;;11.85;100.00;97291.41;5010994;28;20229;-72
2021/05/07 03:28:20;;;;;;;0.87;0.80;;;;;;;11.93;100.00;97292.94;5011007;28;20237;-72
2021/05/07 03:30:48;;;;;;;0.90;0.80;;;;;;;12.10;100.00;97293.97;5011387;28;20209;-72
2021/05/07 03:33:15;;;;;;;1.63;0.77;;;;;;;11.88;100.00;97307.00;5010531;28;20639;-72
2021/05/07 03:35:41;;;;;;;1.20;0.87;;;;;;;12.01;100.00;97311.34;5010885;28;20210;-72
2021/05/07 03:38:09;;;;;;;1.07;0.87;;;;;;;11.85;100.00;97303.97;5010608;28;20221;-72
2021/05/07 03:40:36;;;;;;;1.63;1.00;;;;;;;11.80;100.00;97307.31;5010685;28;20260;-72
2021/05/07 03:43:03;;;;;;;2.43;1.47;;;;;;;11.88;100.00;97307.81;5010212;28;20205;-72
2021/05/07 03:45:30;;;;;;;1.53;0.97;;;;;;;11.70;100.00;97312.38;5011182;28;20548;-72
2021/05/07 03:47:57;;;;;;;1.37;1.03;;;;;;;11.65;100.00;97320.25;5010936;28;20226;-72
2021/05/07 03:50:24;;;;;;;1.27;1.10;;;;;;;11.46;100.00;97315.94;5011348;28;20203;-71
2021/05/07 03:52:51;;;;;;;2.60;1.77;;;;;;;11.50;100.00;97323.25;5010930;28;20217;-71
2021/05/07 03:55:19;;;;;;;2.13;1.30;;;;;;;11.83;100.00;97331.72;5010903;28;20687;-71
2021/05/07 03:57:47;;;;;;;1.50;1.20;;;;;;;11.38;100.00;97338.41;5016039;28;20222;-71
2021/05/07 04:00:15;;;;;;;1.60;1.23;;;;;;;11.16;100.00;97333.72;5014921;28;20218;-72
2021/05/07 04:02:41;;;;;;;1.73;1.30;;;;;;;11.31;100.00;97347.53;5014944;28;20205;-71
2021/05/07 04:05:09;;;;;;;1.97;1.50;;;;;;;11.00;100.00;97342.28;5012603;28;20215;-71
2021/05/07 04:07:36;;;;;;;1.43;1.33;;;;;;;11.01;100.00;97347.41;5013797;28;20237;-71
2021/05/07 04:10:06;;;;;;;2.30;1.57;;;;;;;10.91;100.00;97354.28;5014382;28;20672;-72
2021/05/07 04:15:19;;;;;;;1.90;1.57;;;;;;;10.88;100.00;97364.59;5013270;28;20677;-71
2021/05/07 04:17:45;;;;;;;1.83;1.60;;;;;;;10.80;100.00;97363.00;5015087;28;20247;-71
2021/05/07 04:20:13;;;;;;;2.27;1.53;;;;;;;10.78;100.00;97373.91;5014015;28;20204;-71
2021/05/07 04:22:40;;;;;;;1.80;1.40;;;;;;;10.82;100.00;97367.09;5019575;28;20210;-71
2021/05/07 04:25:08;;;;;;;1.80;1.20;;;;;;;11.09;100.00;97370.34;5015003;28;20211;-71
2021/05/07 04:27:36;;;;;;;2.07;1.10;;;;;;;10.93;100.00;97365.56;5013131;28;20574;-70
2021/05/07 04:30:04;;;;;;;1.60;1.23;;;;;;;10.83;100.00;97376.72;5017840;28;20201;-70
2021/05/07 04:32:30;;;;;;;1.20;1.10;;;;;;;11.00;100.00;97374.31;5012946;28;20212;-72
2021/05/07 04:34:57;;;;;;;1.10;1.00;;;;;;;10.75;100.00;97371.66;5015697;28;20213;-70
2021/05/07 04:37:24;;;;;;;2.03;1.10;;;;;;;10.97;100.00;97386.25;5014230;28;20232;-72
2021/05/07 04:39:51;;;;;;;1.10;0.77;;;;;;;11.12;100.00;97383.25;5014536;28;20241;-71
2021/05/07 04:42:18;;;;;;;1.27;1.10;;;;;;;11.22;100.00;97394.25;5013333;28;20210;-70
2021/05/07 04:44:45;;;;;;;1.97;1.27;;;;;;;11.19;100.00;97400.84;5013309;28;20204;-69
2021/05/07 04:47:12;;;;;;;1.17;0.87;;;;;;;11.15;100.00;97399.66;5013816;28;20567;-81
2021/05/07 04:49:39;;;;;;;2.33;1.10;;;;;;;10.74;100.00;97404.72;5013757;28;20205;-68
2021/05/07 04:52:07;;;;;;;1.87;1.10;;;;;;;10.61;100.00;97407.47;5013696;28;20295;-70
2021/05/07 04:54:34;;;;;;;2.40;0.93;;;;;;;11.00;100.00;97419.69;5016636;28;20292;-70
2021/05/07 04:57:01;;;;;;;2.03;0.90;;;;;;;11.28;100.00;97412.06;5014592;28;20204;-70
2021/05/07 04:59:28;;;;;;;1.53;1.30;;;;;;;10.86;100.00;97418.19;5015778;28;20276;-70
2021/05/07 05:01:56;;;;;;;1.50;0.80;;;;;;;10.30;100.00;97428.78;5016894;28;20242;-70
2021/05/07 05:04:22;;;;;;;1.30;1.00;;;;;;;10.51;100.00;97438.34;5018888;28;20205;-76
2021/05/07 05:06:49;;;;;;;1.87;0.90;;;;;;;10.86;100.00;97432.34;5015353;28;20216;-74
2021/05/07 05:09:16;;;;;;;0.90;0.80;;;;;;;11.13;100.00;97430.28;5012907;28;20229;-69
2021/05/07 05:11:43;;;;;;;2.80;1.23;;;;;;;10.91;100.00;97435.16;5013297;28;20296;-69
2021/05/07 05:14:09;;;;;;;1.00;0.80;;;;;;;10.90;100.00;97436.22;5012681;28;20218;-71
2021/05/07 05:16:36;;;;;;;1.87;1.07;;;;;;;10.73;100.00;97451.13;5018313;28;20361;-68
2021/05/07 05:19:04;;;;;;;1.10;0.90;;;;;;;10.74;100.00;97447.41;5013580;28;20240;-69
2021/05/07 05:21:31;;;;;;;1.67;0.80;;;;;;;10.93;100.00;97448.31;5013955;28;20340;-70
2021/05/07 05:23:58;;;;;;;1.53;0.93;;;;;;;10.49;100.00;97449.22;5014185;28;20205;-69
2021/05/07 05:26:25;;;;;;;2.17;1.23;;;;;;;10.42;100.00;97460.94;5005702;28;20220;-68
2021/05/07 05:28:51;;;;;;;2.67;1.20;;;;;;;10.76;100.00;97458.69;5004100;28;20236;-68
2021/05/07 05:31:18;;;;;;;1.40;1.20;;;;;;;10.77;100.00;97455.00;5006174;28;20493;-68
2021/05/07 05:33:45;;;;;;;2.90;1.67;;;;;;;11.07;100.00;97457.84;5005115;28;20205;-75
2021/05/07 05:36:13;;;;;;;1.80;1.43;;;;;;;10.60;100.00;97471.72;5009370;28;20273;-73
2021/05/07 05:38:39;;;;;;;4.70;1.93;;;;;;;10.61;100.00;97484.03;5015257;28;20280;-80
2021/05/07 05:41:06;;;;;;;2.20;1.70;;;;;;;10.73;100.00;97480.47;5010650;28;20210;-72
2021/05/07 05:43:33;;;;;;;3.37;1.67;;;;;;;11.53;100.00;97480.50;5006419;28;20236;-70
2021/05/07 05:46:00;;;;;;;2.67;1.80;;;;;;;11.17;100.00;97477.69;5013099;28;20607;-72
2021/05/07 05:48:27;;;;;;;5.10;2.20;;;;;;;10.76;100.00;97484.56;5009178;28;20229;-74
2021/05/07 05:50:54;;;;;;;4.63;2.80;;;;;;;10.97;100.00;97485.03;5012338;28;20256;-70
2021/05/07 05:53:22;;;;;;;6.67;2.43;;;;;;;10.53;100.00;97497.59;5011341;28;20205;-69
2021/05/07 05:55:48;;;;;;;3.27;2.50;;;;;;;11.15;100.00;97490.44;5009984;28;20223;-72
2021/05/07 05:58:16;;;;;;;4.00;2.83;;;;;;;11.19;100.00;97489.00;5008655;28;20693;-78
2021/05/07 06:00:43;;;;;;;3.47;2.57;;;;;;;11.82;100.00;97500.38;5011339;28;20210;-71
2021/05/07 06:03:09;;;;;;;4.60;3.10;;;;;;;11.75;100.00;97493.47;5010347;28;20217;-72
2021/05/07 06:05:37;;;;;;;4.00;2.60;;;;;;;11.75;100.00;97496.16;5007943;28;20724;-73
2021/05/07 06:08:04;;;;;;;4.57;2.53;;;;;;;11.83;100.00;97500.16;5010827;28;20598;-81
2021/05/07 06:10:32;;;;;;;4.43;2.53;;;;;;;11.69;100.00;97511.19;5011155;28;20209;-72
2021/05/07 06:12:59;;;;;;;3.60;2.17;;;;;;;11.97;100.00;97508.03;5011011;28;20217;-75
2021/05/07 06:15:26;;;;;;;4.63;2.80;;;;;;;12.04;100.00;97514.97;5009541;28;20242;-70
2021/05/07 06:17:53;;;;;;;4.53;2.50;;;;;;;12.07;100.00;97515.31;5008302;28;20241;-72
2021/05/07 06:20:20;;;;;;;3.27;2.50;;;;;;;12.05;100.00;97523.81;5011141;28;20203;-70
2021/05/07 06:22:48;;;;;;;5.60;2.80;;;;;;;11.57;100.00;97524.41;5007862;28;20683;-71
2021/05/07 06:25:17;;;;;;;4.63;3.00;;;;;;;11.46;100.00;97521.66;5008461;28;20215;-72
2021/05/07 06:27:45;;;;;;;6.43;3.20;;;;;;;11.65;100.00;97518.00;5007475;28;20262;-71
2021/05/07 06:30:14;;;;;;;5.40;3.37;;;;;;;11.71;100.00;97511.78;5007131;28;20206;-69
2021/05/07 06:32:41;;;;;;;3.93;2.80;;;;;;;11.63;100.00;97521.94;5010646;28;20207;-71
2021/05/07 06:35:10;;;;;;;4.63;3.33;;;;;;;11.25;100.00;97525.50;5009251;28;20207;-71
2021/05/07 06:37:37;;;;;;;5.27;3.13;;;;;;;11.64;100.00;97544.97;5007677;28;20314;-75
2021/05/07 06:40:06;;;;;;;5.77;3.33;;;;;;;11.66;100.00;97550.91;5008073;28;20206;-79
2021/05/07 06:42:35;;;;;;;5.30;3.50;;;;;;;11.43;100.00;97546.97;5012941;28;20286;-80
2021/05/07 06:45:03;;;;;;;5.30;3.40;;;;;;;11.50;100.00;97550.38;5010189;28;20206;-81
2021/05/07 06:47:30;;;;;;;4.67;3.27;;;;;;;11.86;100.00;97551.56;5019180;28;20252;-81
2021/05/07 06:49:57;;;;;;;5.43;2.90;;;;;;;11.84;100.00;97554.44;5016379;28;20294;-72
2021/05/07 06:52:24;;;;;;;4.53;3.27;;;;;;;12.41;100.00;97551.38;5009947;28;20211;-71
2021/05/07 06:54:51;;;;;;;4.93;3.47;;;;;;;12.04;100.00;97565.78;5006907;28;20204;-71
2021/05/07 06:57:20;;;;;;;5.27;3.73;;;;;;;12.18;100.00;97574.47;5009891;28;20651;-71
2021/05/07 06:59:48;;;;;;;5.67;4.10;;;;;;;12.00;100.00;97572.59;5009695;28;20234;-73
2021/05/07 07:02:17;;;;;;;4.80;3.60;;;;;;;11.65;100.00;97568.00;5010214;28;20206;-70
2021/05/07 07:04:45;;;;;;;4.63;3.80;;;;;;;11.32;100.00;97577.03;5010795;28;20226;-72
2021/05/07 07:07:12;;;;;;;6.43;4.07;;;;;;;11.67;100.00;97574.75;5009614;28;20233;-73
2021/05/07 07:09:39;;;;;;;6.43;4.03;;;;;;;12.20;100.00;97575.91;5010097;28;20631;-71
2021/05/07 07:12:07;;;;;;;6.43;4.30;;;;;;;11.72;100.00;97580.28;5009954;28;20207;-73
2021/05/07 07:14:36;;;;;;;7.23;3.83;;;;;;;11.78;100.00;97579.38;5009573;28;20221;-73
2021/05/07 07:17:03;;;;;;;7.03;4.30;;;;;;;12.15;100.00;97583.75;5010157;28;20223;-72
2021/05/07 07:19:31;;;;;;;8.33;4.63;;;;;;;11.27;100.00;97598.22;5009604;28;20272;-69
2021/05/07 07:21:58;;;;;;;6.37;4.43;;;;;;;11.39;100.00;97606.38;5006759;28;20253;-69
2021/05/07 07:24:25;;;;;;;5.43;3.97;;;;;;;11.01;100.00;97614.38;5009228;28;20203;-69
2021/05/07 07:26:52;;;;;;;6.07;4.13;;;;;;;11.41;100.00;97615.81;5010776;28;20226;-70
2021/05/07 07:29:19;;;;;;;6.20;4.37;;;;;;;11.40;100.00;97614.19;5009625;28;20237;-70
2021/05/07 07:31:46;;;;;;;10.47;4.57;;;;;;;11.98;100.00;97622.00;5009275;28;20207;-70
2021/05/07 07:34:13;;;;;;;5.57;3.90;;;;;;;11.80;100.00;97616.59;5010809;28;20203;-69
2021/05/07 07:36:41;;;;;;;8.47;4.73;;;;;;;11.64;100.00;97615.28;5012347;28;20215;-74
2021/05/07 07:39:08;;;;;;;6.70;4.23;;;;;;;11.66;100.00;97633.75;5013910;28;20275;-70
2021/05/07 07:41:35;;;;;;;6.03;4.33;;;;;;;11.57;100.00;97628.63;5013155;28;20211;-72
2021/05/07 07:44:02;;;;;;;7.23;4.77;;;;;;;12.03;100.00;97631.00;5009606;28;20236;-70
2021/05/07 07:46:30;;;;;;;7.87;4.33;;;;;;;11.73;100.00;97642.53;5008615;28;20208;-72
2021/05/07 07:48:57;;;;;;;7.93;4.37;;;;;;;11.93;100.00;97640.53;5011622;28;20230;-70
2021/05/07 07:51:28;;;;;;;5.50;3.83;;;;;;;12.14;100.00;97638.31;5011100;28;20237;-69
2021/05/07 07:53:56;;;;;;;6.37;4.50;;;;;;;11.61;100.00;97646.97;5014248;28;20203;-68
2021/05/07 07:56:23;;;;;;;7.67;3.73;;;;;;;12.52;100.00;97646.19;5013126;28;20257;-69
2021/05/07 07:58:50;;;;;;;6.73;3.90;;;;;;;13.25;96.07;97648.63;5009778;28;20227;-69
2021/05/07 08:01:17;;;;;;;6.60;4.00;;;;;;;13.21;91.90;97657.34;5010573;28;20610;-72
2021/05/07 08:03:44;;;;;;;6.03;3.90;;;;;;;13.00;95.94;97657.81;5015339;28;20244;-75
2021/05/07 08:06:10;;;;;;;7.27;4.93;;;;;;;13.52;96.01;97665.19;5013519;28;20215;-68
2021/05/07 08:08:37;;;;;;;6.53;3.60;;;;;;;12.40;94.31;97661.34;5012353;28;20262;-68
2021/05/07 08:11:05;;;;;;;6.90;3.83;;;;;;;11.98;96.14;97670.94;5017096;28;20210;-75
2021/05/07 08:13:32;;;;;;;5.43;3.57;;;;;;;13.34;93.33;97667.88;5015793;28;20217;-76
2021/05/07 08:15:59;;;;;;;5.77;3.57;;;;;;;13.45;91.68;97677.84;5021292;28;20450;-75
2021/05/07 08:18:26;;;;;;;5.97;4.07;;;;;;;14.07;90.12;97680.00;5018734;28;20227;-73
2021/05/07 08:20:52;;;;;;;6.43;3.70;;;;;;;13.97;84.46;97682.44;5015615;28;20241;-73
2021/05/07 08:23:19;;;;;;;6.50;3.27;;;;;;;14.91;81.38;97699.22;5011969;28;20584;-71
2021/05/07 08:25:46;;;;;;;4.83;3.30;;;;;;;14.67;76.64;97702.97;5014780;28;20215;-70
2021/05/07 08:28:14;;;;;;;7.07;3.83;;;;;;;14.19;76.41;97708.50;5015786;28;20283;-70
2021/05/07 08:30:40;;;;;;;4.17;2.93;;;;;;;12.93;81.56;97702.56;5016571;28;20291;-68
2021/05/07 08:33:07;;;;;;;4.97;2.97;;;;;;;13.52;77.33;97711.56;5016779;28;20212;-71
2021/05/07 08:35:34;;;;;;;4.53;2.70;;;;;;;13.72;74.88;97722.03;5012814;28;20225;-70
2021/05/07 08:38:01;;;;;;;7.33;3.13;;;;;;;13.68;77.33;97721.66;5012709;28;20216;-72
2021/05/07 08:40:28;;;;;;;5.20;2.97;;;;;;;13.32;78.53;97729.75;5011146;28;20672;-69
2021/05/07 08:42:55;;;;;;;5.53;3.27;;;;;;;13.90;77.12;97722.81;5015911;28;20208;-68
2021/05/07 08:45:23;;;;;;;3.53;2.63;;;;;;;14.30;71.83;97731.09;5011586;28;20213;-68
2021/05/07 08:47:53;;;;;;;5.30;3.90;;;;;;;14.27;71.24;97740.41;5014845;28;20241;-72
2021/05/07 08:50:20;;;;;;;4.00;2.63;;;;;;;14.52;65.75;97759.00;5012403;28;20296;-71
2021/05/07 08:52:47;;;;;;;3.17;2.60;;;;;;;13.25;69.16;97753.13;5016929;28;20687;-70
2021/05/07 08:55:14;;;;;;;3.93;2.30;;;;;;;13.37;69.71;97759.38;5010198;28;20213;-75
2021/05/07 08:57:41;;;;;;;3.07;2.47;;;;;;;13.73;66.84;97774.63;5011924;28;20313;-69
2021/05/07 09:00:10;;;;;;;4.23;2.37;;;;;;;14.41;65.34;97781.28;5012150;28;20289;-68
2021/05/07 09:02:38;;;;;;;4.03;2.30;;;;;;;13.96;71.91;97767.50;5010003;28;20677;-71
2021/05/07 09:05:06;;;;;;;3.67;2.40;;;;;;;14.81;62.41;97783.13;5010575;28;20212;-73
2021/05/07 09:07:33;;;;;;;5.03;2.63;;;;;;;13.94;60.76;97788.34;5016604;28;20309;-77
2021/05/07 09:10:02;;;;;;;5.90;2.30;;;;;;;13.93;58.43;97796.63;5014235;28;20282;-75
2021/05/07 09:12:31;;;;;;;3.13;2.20;;;;;;;13.60;61.04;97785.50;5013706;28;20211;-74
2021/05/07 09:14:59;;;;;;;2.70;2.00;;;;;;;14.47;62.61;97791.09;5013687;28;20203;-77
2021/05/07 09:17:27;;;;;;;3.17;2.27;;;;;;;13.73;58.34;97807.59;5013121;28;20572;-76
2021/05/07 09:20:06;;;;;;;2.97;2.50;;;;;;;13.36;61.10;97806.00;5014670;28;20211;-72
2021/05/07 09:22:34;;;;;;;3.70;2.40;;;;;;;14.24;62.43;97805.28;5020048;28;20281;-79
2021/05/07 09:25:10;;;;;;;6.33;2.83;;;;;;;13.72;63.14;97794.44;5014168;28;20299;-77
2021/05/07 09:27:37;;;;;;;4.47;2.33;;;;;;;14.10;64.09;97803.00;5010439;28;20316;-73
2021/05/07 09:30:06;;;;;;;2.93;2.43;;;;;;;13.98;59.26;97815.56;5018978;28;20211;-76
2021/05/07 09:32:34;;;;;;;4.60;2.70;;;;;;;14.39;57.95;97821.78;5025607;28;20202;-78
2021/05/07 09:35:11;;;;;;;4.20;2.63;;;;;;;14.90;54.93;97837.31;5022946;28;20900;-79
2021/05/07 09:37:38;;;;;;;5.93;2.67;;;;;;;14.11;58.72;97831.47;5022770;28;20262;-81
2021/05/07 09:40:13;;;;;;;4.67;2.27;;;;;;;14.10;54.68;97844.09;5016117;28;20285;-77
2021/05/07 09:42:40;;;;;;;5.47;2.60;;;;;;;13.96;52.92;97850.66;5013908;28;20227;-76
2021/05/07 09:45:20;;;;;;;5.57;2.87;;;;;;;14.22;51.59;97857.56;5013162;28;20255;-75
2021/05/07 09:47:48;;;;;;;3.47;2.57;;;;;;;14.93;47.40;97863.72;5016144;28;20749;-76
2021/05/07 09:50:18;;;;;;;3.77;2.63;;;;;;;15.04;48.64;97855.66;5016716;28;20216;-76
2021/05/07 09:52:48;;;;;;;4.93;2.30;;;;;;;14.75;47.06;97861.94;5015902;28;20240;-73
2021/05/07 09:55:15;;;;;;;3.70;2.13;;;;;;;15.33;43.95;97872.75;5013089;28;20201;-79
2021/05/07 09:57:42;;;;;;;5.67;2.23;;;;;;;15.54;40.95;97874.88;5018299;28;20237;-75
2021/05/07 10:00:10;;;;;;;3.27;2.10;;;;;;;15.44;38.54;97912.28;5013644;28;20222;-75
2021/05/07 10:02:37;;;;;;;3.13;2.13;;;;;;;16.06;37.97;97898.88;5015763;28;20212;-71
2021/05/07 10:05:05;;;;;;;2.70;2.13;;;;;;;16.15;38.21;97900.16;5017681;28;20286;-73
2021/05/07 10:07:32;;;;;;;2.70;2.07;;;;;;;15.78;38.42;97904.22;5013570;28;20227;-74
2021/05/07 10:10:07;;;;;;;2.77;1.70;;;;;;;15.36;40.40;97904.59;5012392;28;20210;-71
2021/05/07 10:12:36;;;;;;;3.47;2.27;;;;;;;15.89;40.00;97905.25;5008783;28;20682;-72
2021/05/07 10:15:04;;;;;;;3.43;1.83;;;;;;;15.67;39.90;97899.69;5009837;28;20205;-75
2021/05/07 10:17:31;;;;;;;3.10;2.20;;;;;;;15.04;39.20;97920.16;5017504;28;20325;-74
2021/05/07 10:19:58;;;;;;;5.07;2.30;;;;;;;15.24;40.97;97909.13;5015204;28;20245;-73
2021/05/07 10:22:38;;;;;;;2.67;1.70;;;;;;;15.88;38.72;97909.00;5012429;28;20213;-72
2021/05/07 10:25:16;;;;;;;3.07;2.00;;;;;;;15.22;38.68;97936.22;5011861;28;20230;-74
2021/05/07 10:27:47;;;;;;;2.90;2.17;;;;;;;15.14;37.76;97928.50;5007824;28;20229;-77
2021/05/07 10:30:28;;;;;;;3.40;2.03;;;;;;;14.88;38.71;97945.03;5013271;28;20286;-74
2021/05/07 10:33:15;;;;;;;4.70;2.03;;;;;;;14.96;39.77;97939.34;5013012;28;20234;-75
2021/05/07 10:35:42;;;;;;;3.73;2.17;;;;;;;15.90;39.20;97929.22;5014059;28;20203;-75
2021/05/07 10:38:17;;;;;;;2.87;1.83;;;;;;;16.06;36.48;97949.22;5014181;28;20712;-71
2021/05/07 10:40:46;;;;;;;4.47;2.03;;;;;;;16.34;36.45;97946.56;5009513;28;20670;-71
2021/05/07 10:43:13;;;;;;;3.43;1.90;;;;;;;16.89;36.13;97955.78;5011277;28;20235;-74
2021/05/07 10:45:45;;;;;;;3.37;2.10;;;;;;;15.65;36.64;97946.69;5014145;28;20203;-73
2021/05/07 10:48:17;;;;;;;2.50;1.83;;;;;;;15.70;36.39;97969.13;5014421;28;20698;-76
2021/05/07 10:50:44;;;;;;;6.23;2.00;;;;;;;15.84;36.58;97972.41;5009773;28;20209;-73
2021/05/07 10:53:11;;;;;;;4.30;1.90;;;;;;;16.10;35.68;97975.44;5009874;28;20538;-73
2021/05/07 10:55:39;;;;;;;3.90;2.10;;;;;;;16.15;36.16;97958.56;5010990;28;20564;-74
2021/05/07 10:58:06;;;;;;;5.57;2.13;;;;;;;16.18;35.34;97985.84;5013825;28;20231;-74
2021/05/07 11:00:34;;;;;;;3.90;1.90;;;;;;;16.53;33.92;97988.50;5011242;28;20564;-71
2021/05/07 11:03:02;;;;;;;3.93;1.90;;;;;;;15.98;35.36;97988.09;5008985;28;20211;-74
2021/05/07 11:05:39;;;;;;;6.13;1.90;;;;;;;15.59;34.71;98001.41;5007887;28;20703;-74
2021/05/07 11:08:06;;;;;;;3.43;2.20;;;;;;;16.16;35.19;98000.59;5009345;28;20242;-74
2021/05/07 11:10:33;;;;;;;3.43;2.50;;;;;;;14.99;38.22;97992.59;5012127;28;20232;-72
2021/05/07 11:13:01;;;;;;;2.17;1.97;;;;;;;15.74;36.36;97994.53;5009433;28;20215;-75
2021/05/07 11:15:28;;;;;;;4.53;2.27;;;;;;;15.77;36.32;97987.88;5008092;28;20215;-74
2021/05/07 11:18:05;;;;;;;3.30;1.97;;;;;;;14.40;37.05;97991.75;5010322;28;20230;-74
2021/05/07 11:20:36;;;;;;;2.90;2.20;;;;;;;15.29;37.79;97998.75;5010349;28;20216;-75
2021/05/07 11:23:05;;;;;;;3.77;2.00;;;;;;;15.07;35.73;98007.59;5009764;28;20203;-74
2021/05/07 11:25:32;;;;;;;3.17;1.80;;;;;;;15.18;36.12;97999.56;5005595;28;20203;-73
2021/05/07 11:28:12;;;;;;;3.00;1.87;;;;;;;15.02;37.71;97991.31;5010345;28;20235;-74
2021/05/07 11:30:51;;;;;;;2.43;1.80;;;;;;;15.22;35.95;98019.56;5009662;28;20331;-74
2021/05/07 11:33:18;;;;;;;3.67;1.90;;;;;;;15.15;37.76;98013.44;5009348;28;20263;-75